グアヤキル の空港の天気 - METARとTAF

グアヤキル空港 ( SEGU / GYE ) - エクアドル グアヤキル
飛行場実況気象(Metar)
観測時間05/26 18:00 ECT (05/26 23:00 UTC)
風向・風速南南東 3m/s
視程10km以上
天気現象
全天の8割程度の雲 雲底高度 790m
全天の8割程度の雲 雲底高度 3050m
気温26℃
湿度74%
気圧1011hPa
METARSEGU 262300Z 15005KT 9999 BKN026 BKN100 26/21 Q1011 NOSIG RMK A2983
過去の天気等 Google飛行場航空写真 Wunderground天気予報

過去48時間のMETAR

飛行場予報(TAF)
発表時間: 5/26 12:00 ECT (5/26 17:00 UTC)
予報対象時間: 26日13時 ECT ~ 27日13時 ECT
風向・風速南南東 3m/s
視程10km以上
全天の4割程度の雲 雲底高度 790m
全天の8割程度の雲 雲底高度 3050m
26日14時 ECT ~ 26日16時 ECT に一時的に
全天の8割程度の雲 雲底高度 790m
26日17時 ECT ~ 26日19時 ECT に徐々に
風向・風速南西 7m/s
全天の8割程度の雲 雲底高度 790m
全天の8割程度の雲 雲底高度 3050m
26日23時 ECT ~ 27日1時 ECT に徐々に
風向・風速南南西 2m/s
少しの雲 雲底高度 300m
全天の4割程度の雲 雲底高度 790m
全天の8割程度の雲 雲底高度 3050m
27日10時 ECT ~ 27日12時 ECT に徐々に
風向・風速南南東 3m/s
全天の4割程度の雲 雲底高度 790m
全天の8割程度の雲 雲底高度 3050m
TAF COR SEGU 261700Z 2618/2718 15006KT 9999 SCT026 BKN100
TEMPO 2619/2621 BKN026
BECMG 2622/2624 22014KT BKN026 BKN100
BECMG 2704/2706 21004KT FEW010 SCT026 BKN100
BECMG 2715/2717 15005KT SCT026 BKN100 TX29/2620Z TN22/2710Z